Time;durP1;ratioP1;P1;durP2;ratioP2;P2;SDS_P1;SDS_P2;PMS_P1;PMS_P2;Temp;Humidity;BMP_temperature;BMP_pressure;BME280_temperature;BME280_humidity;BME280_pressure;Samples;Min_cycle;Max_cycle;Signal;HPM_P1;HPM_P2
2021/03/25 00:00:33;;;;;;;5.60;4.77;;;;;;;3.40;93.34;101419.81;5053991;28;20426;-70
2021/03/25 00:03:01;;;;;;;4.60;3.83;;;;;;;3.32;94.42;101422.81;5053885;28;20461;-70
2021/03/25 00:05:29;;;;;;;6.63;2.30;;;;;;;3.51;93.72;101414.47;5053535;28;21037;-69
2021/03/25 00:07:55;;;;;;;10.40;5.30;;;;;;;3.49;93.80;101415.72;5053198;28;20449;-68
2021/03/25 00:10:25;;;;;;;3.37;2.60;;;;;;;3.50;94.36;101420.06;5053772;28;20442;-68
2021/03/25 00:12:51;;;;;;;18.93;6.57;;;;;;;3.42;94.88;101413.19;5053696;28;20462;-69
2021/03/25 00:15:18;;;;;;;3.70;3.13;;;;;;;3.46;94.25;101408.19;5053585;28;20442;-69
2021/03/25 00:17:44;;;;;;;10.57;3.77;;;;;;;3.57;93.63;101415.38;5053639;28;20446;-68
2021/03/25 00:20:13;;;;;;;6.37;4.57;;;;;;;3.44;93.16;101407.59;5053639;28;20449;-69
2021/03/25 00:22:39;;;;;;;8.33;2.70;;;;;;;3.42;92.66;101401.66;5053512;28;20485;-69
2021/03/25 00:25:07;;;;;;;3.27;2.53;;;;;;;3.44;92.09;101397.69;5053515;28;20480;-69
2021/03/25 00:27:34;;;;;;;9.13;3.57;;;;;;;3.48;91.59;101406.06;5053583;28;20447;-68
2021/03/25 00:30:00;;;;;;;6.70;2.70;;;;;;;3.46;90.56;101400.97;5053568;28;20496;-70
2021/03/25 00:32:26;;;;;;;6.60;4.73;;;;;;;3.46;90.61;101400.16;5053332;28;20462;-70
2021/03/25 00:34:52;;;;;;;11.97;6.10;;;;;;;3.46;89.96;101402.81;5053414;28;20447;-69
2021/03/25 00:37:18;;;;;;;4.87;2.97;;;;;;;3.36;90.45;101391.84;5053296;28;21082;-69
2021/03/25 00:39:44;;;;;;;5.40;4.10;;;;;;;3.27;90.68;101396.75;5053357;28;20453;-68
2021/03/25 00:42:10;;;;;;;2.40;2.13;;;;;;;3.27;91.19;101399.44;5053259;28;20470;-68
2021/03/25 00:44:37;;;;;;;3.13;2.80;;;;;;;3.21;91.37;101395.81;5053280;28;20450;-69
2021/03/25 00:47:03;;;;;;;10.67;6.07;;;;;;;3.20;90.66;101394.19;5053290;28;20438;-69
2021/03/25 00:49:31;;;;;;;6.20;3.03;;;;;;;3.24;90.94;101395.38;5053187;28;20488;-69
2021/03/25 00:51:57;;;;;;;8.53;4.80;;;;;;;3.11;91.75;101400.94;5053147;28;20489;-69
2021/03/25 00:54:23;;;;;;;9.57;4.63;;;;;;;3.09;91.50;101392.31;5053161;28;20978;-69
2021/03/25 00:56:48;;;;;;;12.37;7.40;;;;;;;3.03;91.75;101393.25;5053065;28;20478;-69
2021/03/25 00:59:14;;;;;;;10.30;3.10;;;;;;;2.96;92.97;101381.81;5053109;28;20944;-69
2021/03/25 01:01:42;;;;;;;4.77;2.73;;;;;;;2.92;93.65;101384.16;5052681;28;20446;-69
2021/03/25 01:04:08;;;;;;;5.93;3.07;;;;;;;2.92;93.61;101388.69;5053048;28;20442;-70
2021/03/25 01:06:34;;;;;;;4.57;4.27;;;;;;;2.91;93.83;101389.72;5053012;28;20450;-70
2021/03/25 01:09:00;;;;;;;5.30;3.07;;;;;;;2.83;94.72;101392.72;5053036;28;20446;-70
2021/03/25 01:11:27;;;;;;;5.83;3.63;;;;;;;2.81;95.49;101384.13;5053111;28;20446;-69
2021/03/25 01:13:55;;;;;;;8.33;4.03;;;;;;;2.72;95.56;101389.81;5053165;28;20449;-68
2021/03/25 01:16:26;;;;;;;2.73;2.57;;;;;;;2.72;95.72;101392.47;5052880;28;20478;-69
2021/03/25 01:18:53;;;;;;;3.30;2.80;;;;;;;2.85;95.24;101396.00;5053554;28;20969;-68
2021/03/25 01:21:19;;;;;;;5.30;4.90;;;;;;;2.96;94.60;101389.84;5056967;28;20442;-70
2021/03/25 01:23:45;;;;;;;5.67;2.87;;;;;;;2.96;94.29;101390.66;5056928;28;20462;-69
2021/03/25 01:26:11;;;;;;;5.30;3.20;;;;;;;2.87;93.97;101399.25;5056831;28;20809;-68
2021/03/25 01:28:37;;;;;;;7.67;3.90;;;;;;;2.78;93.40;101396.91;5056837;28;20456;-68
2021/03/25 01:31:03;;;;;;;2.83;2.00;;;;;;;2.92;92.50;101394.03;5056748;28;20450;-69
2021/03/25 01:33:29;;;;;;;7.23;3.33;;;;;;;2.88;91.63;101398.19;5056680;28;20469;-69
2021/03/25 01:35:56;;;;;;;7.17;4.20;;;;;;;2.81;91.52;101392.16;5056423;28;20605;-69
2021/03/25 01:38:23;;;;;;;8.90;3.63;;;;;;;2.75;91.41;101392.03;5056776;28;20442;-69
2021/03/25 01:40:52;;;;;;;3.10;2.10;;;;;;;2.85;90.65;101393.34;5056646;28;20442;-69
2021/03/25 01:43:23;;;;;;;1.60;1.10;;;;;;;2.70;90.90;101383.88;5056505;28;20462;-69
2021/03/25 01:45:56;;;;;;;4.80;4.50;;;;;;;2.67;90.85;101389.69;5056585;28;20422;-68
2021/03/25 01:48:27;;;;;;;5.57;3.13;;;;;;;2.65;90.71;101389.06;5056270;28;20820;-68
2021/03/25 01:50:57;;;;;;;4.90;2.63;;;;;;;2.64;89.90;101387.44;5056130;28;20458;-68
2021/03/25 01:53:50;;;;;;;12.23;2.70;;;;;;;2.62;90.28;101392.22;5056368;28;20462;-68
2021/03/25 01:56:33;;;;;;;3.03;2.13;;;;;;;2.47;92.83;101389.16;5056280;28;20462;-69
2021/03/25 01:59:17;;;;;;;6.20;3.87;;;;;;;2.40;93.55;101380.41;5056135;28;20422;-69
2021/03/25 02:01:49;;;;;;;2.33;2.00;;;;;;;2.30;93.96;101377.44;5056187;28;20430;-68
2021/03/25 02:04:22;;;;;;;7.37;4.10;;;;;;;2.33;93.42;101374.34;5056133;28;20429;-69
2021/03/25 02:07:01;;;;;;;1.13;1.03;;;;;;;2.28;93.69;101375.81;5056101;28;20533;-69
2021/03/25 02:09:41;;;;;;;3.70;3.37;;;;;;;2.30;93.53;101369.44;5056123;28;20430;-70
2021/03/25 02:12:16;;;;;;;6.60;4.37;;;;;;;2.29;93.04;101371.28;5055254;28;20469;-69
2021/03/25 02:14:48;;;;;;;5.63;4.60;;;;;;;2.32;92.99;101373.53;5056125;28;20422;-69
2021/03/25 02:17:18;;;;;;;8.70;3.93;;;;;;;2.39;92.59;101370.75;5055618;28;20485;-68
2021/03/25 02:20:09;;;;;;;4.90;1.93;;;;;;;2.25;92.66;101376.25;5055542;28;20458;-69
2021/03/25 02:23:13;;;;;;;1.93;1.23;;;;;;;2.28;92.86;101367.00;5055830;28;20462;-69
2021/03/25 02:25:44;;;;;;;5.90;2.77;;;;;;;2.33;92.64;101363.63;5031871;28;20796;-69
2021/03/25 02:28:20;;;;;;;4.03;1.70;;;;;;;2.40;91.09;101364.38;5055784;28;20446;-68
2021/03/25 02:31:02;;;;;;;7.00;3.80;;;;;;;2.34;91.38;101365.25;5055256;28;20433;-69
2021/03/25 02:33:29;;;;;;;4.93;2.40;;;;;;;2.44;91.94;101365.56;5055543;28;20515;-70
2021/03/25 02:36:01;;;;;;;2.67;2.50;;;;;;;2.39;92.38;101368.06;5055494;28;20493;-69
2021/03/25 02:38:33;;;;;;;3.80;3.50;;;;;;;2.38;93.31;101369.13;5055599;28;20422;-69
2021/03/25 02:41:04;;;;;;;2.23;2.13;;;;;;;2.33;93.36;101358.28;5055545;28;20426;-68
2021/03/25 02:43:36;;;;;;;0.83;0.83;;;;;;;2.50;92.99;101362.78;5055361;28;20508;-69
2021/03/25 02:46:08;;;;;;;7.03;3.83;;;;;;;2.39;93.31;101360.03;5055194;28;20473;-69
2021/03/25 02:48:36;;;;;;;6.63;3.60;;;;;;;2.36;93.42;101360.53;5055376;28;20438;-67
2021/03/25 02:51:05;;;;;;;4.30;4.00;;;;;;;2.35;94.42;101358.91;5055367;28;20442;-68
2021/03/25 02:53:34;;;;;;;13.70;4.30;;;;;;;2.30;94.07;101361.41;5055224;28;20472;-68
2021/03/25 02:56:07;;;;;;;3.07;2.53;;;;;;;2.31;95.07;101363.06;5055125;28;20492;-69
2021/03/25 02:58:36;;;;;;;4.00;2.90;;;;;;;2.34;95.03;101367.94;5055204;28;20427;-67
2021/03/25 03:01:07;;;;;;;4.87;4.13;;;;;;;2.40;94.57;101365.19;5055131;28;20446;-69
2021/03/25 03:03:38;;;;;;;8.93;3.03;;;;;;;2.37;92.65;101362.16;5055020;28;20455;-68
2021/03/25 03:06:06;;;;;;;5.33;1.30;;;;;;;2.28;92.48;101359.78;5055168;28;20441;-69
2021/03/25 03:08:39;;;;;;;9.93;2.63;;;;;;;2.26;92.54;101361.06;5054972;28;20500;-69
2021/03/25 03:11:10;;;;;;;6.97;5.40;;;;;;;2.23;93.08;101358.84;5055196;28;20438;-70
2021/03/25 03:13:42;;;;;;;1.97;1.80;;;;;;;2.38;91.35;101358.44;5054866;28;20454;-69
2021/03/25 03:16:20;;;;;;;6.83;3.60;;;;;;;2.39;91.23;101365.41;5054834;28;20836;-69
2021/03/25 03:18:52;;;;;;;5.60;2.90;;;;;;;2.34;90.07;101362.59;5054406;28;20454;-69
2021/03/25 03:21:24;;;;;;;3.00;2.80;;;;;;;2.33;90.69;101361.78;5054800;28;20430;-69
2021/03/25 03:23:50;;;;;;;6.80;3.10;;;;;;;2.30;90.11;101366.75;5054604;28;20476;-68
2021/03/25 03:26:22;;;;;;;7.10;3.30;;;;;;;2.14;91.34;101363.69;5054682;28;20449;-69
2021/03/25 03:28:52;;;;;;;10.83;3.53;;;;;;;2.14;90.90;101363.69;5054665;28;20835;-68
2021/03/25 03:31:23;;;;;;;3.80;2.17;;;;;;;2.11;91.31;101364.13;5054530;28;20450;-68
2021/03/25 03:33:54;;;;;;;2.50;1.53;;;;;;;2.03;91.72;101369.78;5054469;28;20466;-69
2021/03/25 03:36:22;;;;;;;5.10;3.03;;;;;;;1.93;91.73;101372.16;5054395;28;20475;-69
2021/03/25 03:38:51;;;;;;;5.57;3.80;;;;;;;1.89;92.18;101368.31;5054503;28;20446;-68
2021/03/25 03:41:21;;;;;;;3.60;1.03;;;;;;;1.98;92.71;101372.31;5054563;28;20450;-69
2021/03/25 03:43:49;;;;;;;18.93;2.37;;;;;;;2.09;93.06;101363.56;5052954;28;20470;-68
2021/03/25 03:46:20;;;;;;;2.83;2.60;;;;;;;1.98;94.23;101370.44;5054265;28;20513;-68
2021/03/25 03:48:50;;;;;;;2.00;1.80;;;;;;;2.00;94.99;101362.22;5054201;28;20491;-68
2021/03/25 03:51:24;;;;;;;11.00;3.17;;;;;;;2.08;94.78;101367.28;5054276;28;20457;-68
2021/03/25 03:53:50;;;;;;;9.73;3.27;;;;;;;1.95;95.30;101373.59;5054140;28;20466;-69
2021/03/25 03:56:24;;;;;;;6.23;4.00;;;;;;;1.92;95.70;101370.53;5054018;28;20486;-69
2021/03/25 03:58:54;;;;;;;4.10;2.30;;;;;;;1.97;95.72;101374.16;5054032;28;20445;-68
2021/03/25 04:01:25;;;;;;;0.77;0.77;;;;;;;2.04;95.13;101371.44;5054063;28;20527;-69
2021/03/25 04:03:58;;;;;;;2.50;2.03;;;;;;;1.97;95.60;101368.81;5053583;28;20987;-67
2021/03/25 04:06:31;;;;;;;2.20;2.10;;;;;;;2.01;95.58;101367.34;5053665;28;20919;-68
2021/03/25 04:09:02;;;;;;;2.80;1.80;;;;;;;2.02;95.54;101370.81;5053874;28;20423;-67
2021/03/25 04:11:33;;;;;;;2.43;1.13;;;;;;;1.92;94.44;101376.69;5053776;28;20419;-70
2021/03/25 04:14:02;;;;;;;10.30;3.23;;;;;;;1.93;93.44;101372.97;5053516;28;20920;-68
2021/03/25 04:16:31;;;;;;;2.80;2.07;;;;;;;1.97;92.96;101370.69;5053300;28;20485;-67
2021/03/25 04:19:01;;;;;;;3.60;3.40;;;;;;;1.88;92.71;101374.69;5053435;28;20458;-68
2021/03/25 04:21:32;;;;;;;3.57;3.10;;;;;;;1.82;92.37;101372.94;5053641;28;20438;-69
2021/03/25 04:24:00;;;;;;;2.67;2.57;;;;;;;1.82;92.57;101368.41;5053298;28;20935;-69
2021/03/25 04:26:33;;;;;;;6.00;3.37;;;;;;;1.95;90.87;101370.09;5053588;28;20449;-68
2021/03/25 04:29:02;;;;;;;7.93;3.70;;;;;;;1.92;90.60;101384.72;5053543;28;20419;-68
2021/03/25 04:31:29;;;;;;;7.93;4.60;;;;;;;1.87;91.87;101383.75;5053383;28;20460;-70
2021/03/25 04:33:56;;;;;;;4.43;3.43;;;;;;;1.81;92.38;101380.09;5053453;28;20865;-68
2021/03/25 04:36:25;;;;;;;7.63;4.17;;;;;;;1.66;92.24;101382.34;5053310;28;20492;-69
2021/03/25 04:38:52;;;;;;;5.43;4.57;;;;;;;1.68;92.29;101380.25;5053417;28;20438;-68
2021/03/25 04:41:19;;;;;;;3.07;2.77;;;;;;;1.69;91.88;101380.06;5053338;28;20446;-69
2021/03/25 04:43:47;;;;;;;20.87;3.43;;;;;;;1.64;91.52;101374.56;5053216;28;20474;-69
2021/03/25 04:46:42;;;;;;;3.33;3.13;;;;;;;1.62;91.94;101373.16;5053303;28;20438;-69
2021/03/25 04:49:14;;;;;;;1.20;1.10;;;;;;;1.55;92.23;101364.38;5053316;28;20423;-69
2021/03/25 04:51:40;;;;;;;1.23;1.17;;;;;;;1.47;93.75;101370.84;5053244;28;20429;-69
2021/03/25 04:54:26;;;;;;;7.93;2.67;;;;;;;1.42;94.66;101371.50;5052890;28;20442;-68
2021/03/25 04:56:54;;;;;;;11.50;2.37;;;;;;;1.44;95.81;101369.41;5053160;28;20467;-69
2021/03/25 04:59:22;;;;;;;6.40;1.83;;;;;;;1.50;95.33;101370.38;5053168;28;20814;-68
2021/03/25 05:01:48;;;;;;;4.40;2.13;;;;;;;1.47;95.68;101370.84;5052682;28;20872;-69
2021/03/25 05:04:15;;;;;;;1.83;1.53;;;;;;;1.60;95.23;101369.91;5053096;28;20446;-69
2021/03/25 05:06:47;;;;;;;3.10;1.53;;;;;;;1.71;94.51;101364.59;5052999;28;20443;-68
2021/03/25 05:09:15;;;;;;;2.87;1.90;;;;;;;1.73;94.81;101370.56;5053106;28;20484;-68
2021/03/25 05:11:41;;;;;;;2.43;2.07;;;;;;;1.82;94.30;101375.59;5052927;28;20438;-68
2021/03/25 05:14:14;;;;;;;8.20;1.93;;;;;;;1.72;94.85;101376.09;5053058;28;20438;-68
2021/03/25 05:16:54;;;;;;;8.43;2.93;;;;;;;1.67;95.69;101373.28;5052890;28;20532;-69
2021/03/25 05:19:32;;;;;;;1.20;1.03;;;;;;;1.83;94.70;101374.56;5052686;28;20462;-68
2021/03/25 05:22:08;;;;;;;5.03;2.87;;;;;;;1.84;92.98;101373.50;5052591;28;20825;-68
2021/03/25 05:24:41;;;;;;;4.63;2.30;;;;;;;1.80;92.15;101377.66;5052614;28;20425;-69
2021/03/25 05:27:11;;;;;;;6.53;0.80;;;;;;;1.80;92.15;101383.00;5052872;28;20430;-67
2021/03/25 05:29:39;;;;;;;5.90;3.47;;;;;;;1.72;92.21;101381.44;5053126;28;20446;-69
2021/03/25 05:32:07;;;;;;;0.50;0.50;;;;;;;1.71;92.42;101385.97;5052748;28;20466;-68
2021/03/25 05:34:35;;;;;;;2.50;1.97;;;;;;;1.68;91.97;101381.09;5052803;28;20450;-69
2021/03/25 05:37:01;;;;;;;4.00;1.13;;;;;;;1.63;93.68;101386.25;5052713;28;20482;-68
2021/03/25 05:39:27;;;;;;;3.57;2.63;;;;;;;1.63;95.32;101386.25;5052753;28;20434;-68
2021/03/25 05:42:08;;;;;;;15.40;3.63;;;;;;;1.67;95.28;101389.31;5052664;28;20466;-68
2021/03/25 05:45:02;;;;;;;2.73;1.97;;;;;;;1.73;94.43;101389.25;5052755;28;20429;-69
2021/03/25 05:47:40;;;;;;;3.50;3.20;;;;;;;1.88;93.03;101394.22;5052641;28;20453;-69
2021/03/25 05:50:16;;;;;;;1.30;1.03;;;;;;;1.95;91.97;101394.16;5052688;28;20430;-68
2021/03/25 05:52:52;;;;;;;6.93;3.83;;;;;;;1.99;92.38;101390.81;5054170;28;20469;-69
2021/03/25 05:55:37;;;;;;;2.33;1.93;;;;;;;2.01;92.27;101393.25;5052105;28;20955;-69
2021/03/25 05:58:11;;;;;;;2.10;1.13;;;;;;;2.03;92.02;101401.84;5052628;28;20422;-69
2021/03/25 06:00:44;;;;;;;1.57;1.00;;;;;;;2.12;92.27;101405.03;5052606;28;20466;-69
2021/03/25 06:03:13;;;;;;;0.53;0.53;;;;;;;2.17;92.82;101400.66;5052483;28;21009;-69
2021/03/25 06:05:42;;;;;;;17.27;2.70;;;;;;;2.19;92.73;101403.09;5053052;28;20445;-71
2021/03/25 06:08:35;;;;;;;1.93;1.80;;;;;;;2.31;93.18;101403.16;5058041;28;20439;-70
2021/03/25 06:11:10;;;;;;;9.70;5.40;;;;;;;2.41;93.40;101409.59;5056308;28;20425;-70
2021/03/25 06:13:48;;;;;;;2.57;2.40;;;;;;;2.36;94.72;101411.31;5056014;28;20836;-71
2021/03/25 06:16:35;;;;;;;2.70;2.53;;;;;;;2.47;94.77;101411.34;5056026;28;20462;-70
2021/03/25 06:19:34;;;;;;;11.53;1.70;;;;;;;2.62;94.80;101418.16;5055920;28;20450;-68
2021/03/25 06:22:09;;;;;;;8.33;2.50;;;;;;;2.71;94.97;101417.59;5055876;28;20929;-70
2021/03/25 06:25:20;;;;;;;5.40;2.10;;;;;;;2.95;95.66;101423.81;5055873;28;20425;-70
2021/03/25 06:28:13;;;;;;;0.87;0.87;;;;;;;3.19;95.84;101434.59;5047360;28;20939;-70
2021/03/25 06:30:42;;;;;;;2.50;2.20;;;;;;;3.24;96.99;101440.88;5020276;28;20450;-70
2021/03/25 06:33:15;;;;;;;1.83;1.70;;;;;;;3.43;96.78;101440.78;5055582;28;20462;-70
2021/03/25 06:35:46;;;;;;;3.97;1.60;;;;;;;3.61;97.47;101440.66;5055597;28;20426;-70
2021/03/25 06:38:18;;;;;;;3.87;3.53;;;;;;;3.68;97.93;101437.88;5055634;28;20438;-70
2021/03/25 06:40:51;;;;;;;8.40;5.07;;;;;;;3.86;97.86;101450.31;5055323;28;20904;-71
2021/03/25 06:43:24;;;;;;;2.37;2.20;;;;;;;4.04;97.63;101442.13;5055490;28;20473;-70
2021/03/25 06:45:55;;;;;;;3.70;3.33;;;;;;;4.18;97.77;101440.81;5055512;28;20422;-71
2021/03/25 06:48:35;;;;;;;7.40;3.37;;;;;;;4.35;97.17;101434.72;5055552;28;20513;-71
2021/03/25 06:51:15;;;;;;;4.90;3.10;;;;;;;4.50;96.93;101443.03;5055679;28;20466;-71
2021/03/25 06:53:42;;;;;;;4.80;2.80;;;;;;;4.61;96.71;101430.66;5055088;28;20462;-71
2021/03/25 06:56:13;;;;;;;1.93;1.37;;;;;;;4.76;96.20;101447.81;5055215;28;20524;-71
2021/03/25 06:58:45;;;;;;;10.87;4.80;;;;;;;4.91;95.74;101458.00;5055234;28;20430;-71
2021/03/25 07:01:21;;;;;;;13.00;2.87;;;;;;;5.07;96.30;101454.53;5054902;28;20445;-71
2021/03/25 07:03:48;;;;;;;3.23;2.20;;;;;;;5.28;96.36;101453.03;5055102;28;20502;-71
2021/03/25 07:06:14;;;;;;;6.20;4.60;;;;;;;5.43;96.12;101455.13;5055216;28;20519;-71
2021/03/25 07:08:40;;;;;;;18.43;2.33;;;;;;;5.48;95.30;101463.25;5054986;28;20438;-71
2021/03/25 07:11:14;;;;;;;2.87;2.37;;;;;;;5.69;95.14;101464.38;5054550;28;20442;-71
2021/03/25 07:13:43;;;;;;;27.87;7.00;;;;;;;5.85;94.85;101468.13;5054935;28;20462;-72
2021/03/25 07:16:10;;;;;;;11.63;4.70;;;;;;;6.00;94.51;101471.03;5054523;28;21025;-71
2021/03/25 07:18:49;;;;;;;11.80;6.60;;;;;;;6.16;94.13;101474.75;5054385;28;20457;-71
2021/03/25 07:21:27;;;;;;;4.57;3.40;;;;;;;6.26;93.26;101477.56;5054608;28;20464;-72
2021/03/25 07:23:55;;;;;;;5.13;3.27;;;;;;;6.42;92.63;101481.28;5054775;28;20462;-71
2021/03/25 07:26:28;;;;;;;2.50;2.17;;;;;;;6.52;92.12;101483.25;5054370;28;20962;-72
2021/03/25 07:29:20;;;;;;;7.23;3.53;;;;;;;6.67;91.48;101477.22;5054463;28;20430;-71
2021/03/25 07:31:55;;;;;;;10.37;5.10;;;;;;;6.79;91.10;101488.66;5045217;28;20481;-71
2021/03/25 07:34:30;;;;;;;7.97;4.53;;;;;;;6.95;90.81;101492.31;5054335;28;20964;-71
2021/03/25 07:36:58;;;;;;;4.17;3.77;;;;;;;7.03;90.55;101483.78;5054332;28;20482;-71
2021/03/25 07:39:27;;;;;;;8.70;4.20;;;;;;;7.10;89.98;101488.97;5054378;28;20438;-71
2021/03/25 07:41:56;;;;;;;3.73;2.93;;;;;;;7.20;89.62;101489.06;5054307;28;20458;-72
2021/03/25 07:44:30;;;;;;;5.87;2.80;;;;;;;7.29;89.30;101493.72;5054511;28;20457;-71
2021/03/25 07:46:59;;;;;;;10.70;4.73;;;;;;;7.46;88.65;101499.00;5054498;28;20479;-72
2021/03/25 07:49:28;;;;;;;4.40;4.00;;;;;;;7.59;86.91;101490.47;5054195;28;20450;-72
2021/03/25 07:51:56;;;;;;;8.93;5.13;;;;;;;7.71;86.53;101492.97;5054134;28;20462;-72
2021/03/25 07:54:31;;;;;;;18.10;4.00;;;;;;;7.75;86.28;101491.41;5054140;28;20844;-72
2021/03/25 07:57:02;;;;;;;7.30;4.40;;;;;;;7.89;85.29;101488.25;5053988;28;20465;-72
2021/03/25 07:59:41;;;;;;;13.03;5.93;;;;;;;7.99;84.54;101480.19;5053600;28;20461;-72
2021/03/25 08:02:28;;;;;;;16.47;4.50;;;;;;;8.11;84.14;101486.22;5053860;28;20454;-72
2021/03/25 08:04:56;;;;;;;5.70;4.07;;;;;;;8.16;83.82;101486.22;5053815;28;20810;-71
2021/03/25 08:07:24;;;;;;;6.60;5.13;;;;;;;8.32;83.71;101489.78;5054325;28;20438;-70
2021/03/25 08:09:55;;;;;;;2.67;2.47;;;;;;;8.47;83.22;101497.19;5054429;28;20434;-72
2021/03/25 08:12:27;;;;;;;3.40;2.90;;;;;;;8.60;83.20;101491.31;5053833;28;20469;-69
2021/03/25 08:15:07;;;;;;;7.03;3.33;;;;;;;8.74;83.29;101488.91;5053684;28;20430;-69
2021/03/25 08:17:41;;;;;;;17.90;4.23;;;;;;;8.92;82.68;101491.09;5053503;28;20840;-69
2021/03/25 08:20:19;;;;;;;4.70;3.43;;;;;;;9.10;82.58;101487.06;5053311;28;20442;-70
2021/03/25 08:23:00;;;;;;;9.60;6.73;;;;;;;9.21;81.73;101494.13;5053320;28;21026;-70
2021/03/25 08:25:37;;;;;;;8.60;3.50;;;;;;;9.42;79.93;101499.53;5053469;28;20441;-69
2021/03/25 08:28:18;;;;;;;3.90;3.17;;;;;;;9.58;79.66;101493.84;5053422;28;20489;-70
2021/03/25 08:31:02;;;;;;;8.60;3.67;;;;;;;9.80;78.73;101493.56;5053317;28;20419;-70
2021/03/25 08:33:39;;;;;;;7.90;4.30;;;;;;;10.08;78.09;101494.84;5053261;28;20489;-70
2021/03/25 08:36:13;;;;;;;10.23;5.23;;;;;;;10.31;77.68;101504.28;5053285;28;20430;-69
2021/03/25 08:38:51;;;;;;;8.53;4.03;;;;;;;10.51;77.81;101499.88;5060009;28;20423;-70
2021/03/25 08:41:22;;;;;;;16.17;6.13;;;;;;;10.71;76.27;101490.81;5053264;28;20426;-70
2021/03/25 08:43:56;;;;;;;14.17;6.10;;;;;;;10.74;74.67;101496.50;5053006;28;20462;-69
2021/03/25 08:46:28;;;;;;;7.87;5.33;;;;;;;10.93;74.19;101512.09;5053179;28;20427;-69
2021/03/25 08:48:58;;;;;;;5.97;5.00;;;;;;;11.04;73.95;101505.53;5052907;28;20799;-69
2021/03/25 08:51:27;;;;;;;6.90;4.97;;;;;;;11.08;73.34;101506.59;5053101;28;20492;-71
2021/03/25 08:53:57;;;;;;;11.73;4.97;;;;;;;11.18;73.11;101506.53;5053108;28;20828;-74
2021/03/25 08:56:37;;;;;;;14.37;7.93;;;;;;;11.29;72.48;101507.28;5053347;28;20466;-74
2021/03/25 08:59:11;;;;;;;16.33;6.07;;;;;;;11.34;73.02;101515.38;5053265;28;20798;-74
2021/03/25 09:01:43;;;;;;;14.07;5.13;;;;;;;11.28;72.83;101509.16;5053021;28;20798;-73
2021/03/25 09:04:11;;;;;;;16.63;8.90;;;;;;;11.36;73.12;101505.84;5053122;28;20423;-73
2021/03/25 09:06:39;;;;;;;14.53;10.30;;;;;;;11.46;72.97;101506.84;5052898;28;20441;-70
2021/03/25 09:09:28;;;;;;;13.00;7.33;;;;;;;11.58;71.58;101507.28;5052995;28;20454;-67
2021/03/25 09:11:56;;;;;;;9.90;6.33;;;;;;;11.69;70.97;101503.41;5052904;28;20465;-69
2021/03/25 09:14:24;;;;;;;7.83;4.37;;;;;;;11.78;70.97;101506.31;5052990;28;20450;-71
2021/03/25 09:16:52;;;;;;;10.47;4.83;;;;;;;11.77;70.56;101505.47;5052909;28;20504;-72
2021/03/25 09:19:23;;;;;;;11.03;4.27;;;;;;;11.88;70.29;101508.94;5052312;28;20462;-72
2021/03/25 09:21:50;;;;;;;9.93;6.10;;;;;;;11.89;69.85;101505.13;5053003;28;20458;-72
2021/03/25 09:24:16;;;;;;;18.10;10.50;;;;;;;11.92;69.42;101510.00;5052871;28;20438;-72
2021/03/25 09:26:54;;;;;;;11.93;6.03;;;;;;;11.82;70.57;101510.03;5052900;28;20435;-73
2021/03/25 09:29:24;;;;;;;9.67;5.40;;;;;;;11.95;69.35;101509.41;5052619;28;20458;-77
2021/03/25 09:32:27;;;;;;;15.87;7.73;;;;;;;12.05;69.38;101503.06;5052804;28;20461;-70
2021/03/25 09:34:53;;;;;;;16.57;8.10;;;;;;;12.16;68.84;101509.19;5052988;28;20422;-75
2021/03/25 09:37:22;;;;;;;15.43;7.30;;;;;;;12.25;68.99;101513.69;5052828;28;20489;-75
2021/03/25 09:40:27;;;;;;;5.50;4.93;;;;;;;12.42;67.58;101499.66;5052725;28;20438;-71
2021/03/25 09:43:16;;;;;;;10.87;3.27;;;;;;;12.53;67.66;101495.72;5056294;28;20462;-67
2021/03/25 09:45:43;;;;;;;23.10;7.07;;;;;;;12.47;67.09;101498.78;5056291;28;20916;-69
2021/03/25 09:48:20;;;;;;;14.90;7.93;;;;;;;12.58;67.13;101497.56;5056589;28;20441;-69
2021/03/25 09:51:01;;;;;;;14.27;8.50;;;;;;;12.75;66.60;101499.75;5056528;28;20438;-69
2021/03/25 09:53:27;;;;;;;8.97;5.50;;;;;;;12.87;66.45;101500.94;5056437;28;20473;-69
2021/03/25 09:56:04;;;;;;;13.97;5.50;;;;;;;13.00;65.16;101502.13;5056312;28;20500;-69
2021/03/25 09:58:42;;;;;;;9.70;7.37;;;;;;;13.13;64.60;101506.00;5056457;28;20426;-69
2021/03/25 10:01:10;;;;;;;10.93;5.93;;;;;;;13.15;63.96;101501.09;5056323;28;20442;-69
2021/03/25 10:04:22;;;;;;;14.43;7.17;;;;;;;13.28;63.43;101503.09;5056234;28;20532;-69
2021/03/25 10:07:27;;;;;;;7.93;5.40;;;;;;;13.43;62.79;101495.78;5056161;28;20472;-70
2021/03/25 10:10:18;;;;;;;13.00;7.87;;;;;;;13.56;63.38;101503.19;5055870;28;20922;-69
2021/03/25 10:12:54;;;;;;;15.63;7.30;;;;;;;13.62;62.45;101496.53;5056226;28;20472;-71
2021/03/25 10:15:58;;;;;;;17.90;9.50;;;;;;;13.73;61.79;101495.25;5056012;28;20430;-69
2021/03/25 10:18:52;;;;;;;18.33;8.73;;;;;;;13.89;61.04;101501.22;5055805;28;20453;-70
2021/03/25 10:21:20;;;;;;;16.13;7.13;;;;;;;13.99;60.33;101486.59;5055944;28;20422;-70
2021/03/25 10:23:59;;;;;;;15.47;8.13;;;;;;;14.14;60.91;101486.31;5055797;28;20462;-70
2021/03/25 10:26:34;;;;;;;9.27;5.13;;;;;;;14.26;58.58;101492.06;5055846;28;20444;-69
2021/03/25 10:29:05;;;;;;;14.10;6.27;;;;;;;14.31;58.50;101489.25;5055555;28;20422;-70
2021/03/25 10:31:40;;;;;;;12.10;6.17;;;;;;;14.31;59.05;101485.72;5055793;28;20430;-70
2021/03/25 10:34:15;;;;;;;9.33;5.63;;;;;;;14.37;58.67;101477.13;5055722;28;20426;-70
2021/03/25 10:36:47;;;;;;;20.70;7.63;;;;;;;14.55;59.05;101485.50;5055744;28;20524;-70
2021/03/25 10:39:20;;;;;;;18.33;8.30;;;;;;;14.77;58.21;101482.81;5055485;28;20415;-70
2021/03/25 10:41:46;;;;;;;17.77;7.63;;;;;;;14.85;56.54;101482.09;5055468;28;20431;-71
2021/03/25 10:44:29;;;;;;;14.20;7.20;;;;;;;14.83;55.48;101480.78;5055398;28;20446;-70
2021/03/25 10:46:58;;;;;;;13.37;5.57;;;;;;;14.85;55.07;101481.31;5055429;28;20418;-70
2021/03/25 10:49:28;;;;;;;13.43;7.30;;;;;;;14.90;55.55;101489.38;5055284;28;20492;-72
2021/03/25 10:51:55;;;;;;;11.13;6.27;;;;;;;14.93;54.86;101475.13;5054614;28;20469;-71
2021/03/25 10:54:27;;;;;;;15.43;7.90;;;;;;;15.01;54.60;101473.59;5054896;28;20438;-69
2021/03/25 10:57:01;;;;;;;17.17;5.37;;;;;;;15.08;54.92;101476.66;5054776;28;21038;-69
2021/03/25 10:59:29;;;;;;;14.97;7.63;;;;;;;15.26;55.00;101470.22;5055136;28;20429;-70
2021/03/25 11:01:57;;;;;;;11.40;6.00;;;;;;;15.45;54.95;101474.66;5054790;28;20469;-69
2021/03/25 11:04:26;;;;;;;17.77;7.83;;;;;;;15.63;53.50;101473.69;5054934;28;20446;-70
2021/03/25 11:06:53;;;;;;;20.00;6.70;;;;;;;15.82;52.78;101466.06;5054862;28;20450;-70
2021/03/25 11:09:23;;;;;;;15.13;6.87;;;;;;;15.82;51.74;101463.34;5055036;28;20457;-72
2021/03/25 11:11:52;;;;;;;16.63;5.33;;;;;;;15.75;52.11;101462.19;5054788;28;20477;-71
2021/03/25 11:14:26;;;;;;;17.20;6.37;;;;;;;15.94;52.47;101461.94;5054803;28;20811;-71
2021/03/25 11:16:55;;;;;;;15.07;6.73;;;;;;;16.04;51.87;101469.88;5054732;28;20539;-69
2021/03/25 11:19:26;;;;;;;18.17;5.70;;;;;;;16.08;51.18;101468.13;5054319;28;20469;-75
2021/03/25 11:21:55;;;;;;;20.80;6.07;;;;;;;16.38;51.46;101464.50;5054600;28;20461;-72
2021/03/25 11:24:25;;;;;;;23.57;6.83;;;;;;;16.90;50.71;101459.09;5054301;28;20928;-72
2021/03/25 11:26:54;;;;;;;21.60;9.10;;;;;;;17.47;48.83;101458.06;5054187;28;20439;-71
2021/03/25 11:29:21;;;;;;;16.33;6.40;;;;;;;17.87;47.06;101469.56;5054506;28;20443;-72
2021/03/25 11:31:47;;;;;;;18.47;7.67;;;;;;;18.41;47.36;101475.25;5054067;28;20813;-72
2021/03/25 11:34:24;;;;;;;13.60;7.33;;;;;;;18.99;45.65;101470.03;5054473;28;20438;-72
2021/03/25 11:36:52;;;;;;;6.80;4.30;;;;;;;19.30;44.03;101482.50;5054076;28;20837;-71
2021/03/25 11:39:22;;;;;;;9.23;6.00;;;;;;;19.13;43.64;101470.56;5054551;28;20517;-72
2021/03/25 11:41:50;;;;;;;21.63;8.00;;;;;;;19.66;43.38;101468.13;5054322;28;20434;-71
2021/03/25 11:44:45;;;;;;;16.23;7.90;;;;;;;19.99;41.40;101467.22;5053879;28;20983;-72
2021/03/25 11:47:33;;;;;;;13.90;6.10;;;;;;;19.57;42.51;101461.88;5053884;28;20419;-71
2021/03/25 11:50:01;;;;;;;12.80;5.60;;;;;;;19.65;43.19;101459.03;5054212;28;20426;-72
2021/03/25 11:52:27;;;;;;;12.47;6.43;;;;;;;19.55;42.35;101469.66;5055360;28;20493;-68
2021/03/25 11:54:59;;;;;;;14.60;6.40;;;;;;;19.62;41.66;101464.44;5054040;28;20447;-69